Time;durP1;ratioP1;P1;durP2;ratioP2;P2;SDS_P1;SDS_P2;PMS_P1;PMS_P2;Temp;Humidity;BMP_temperature;BMP_pressure;BME280_temperature;BME280_humidity;BME280_pressure;Samples;Min_cycle;Max_cycle;Signal;HPM_P1;HPM_P2
2022/03/06 00:02:06;;;;;;;5.60;2.53;;;;;;;;;;7386640;19;20021;-74
2022/03/06 00:04:32;;;;;;;7.70;3.10;;;;;;;;;;7387348;19;20019;-72
2022/03/06 00:06:58;;;;;;;4.20;2.45;;;;;;;;;;7386615;19;20010;-75
2022/03/06 00:09:23;;;;;;;4.38;2.13;;;;;;;;;;7386853;19;20007;-73
2022/03/06 00:11:49;;;;;;;5.55;2.50;;;;;;;;;;7387458;19;20066;-73
2022/03/06 00:14:15;;;;;;;4.97;2.72;;;;;;;;;;7389741;19;20026;-74
2022/03/06 00:16:41;;;;;;;6.22;2.47;;;;;;;;;;7386396;19;20379;-73
2022/03/06 00:19:06;;;;;;;6.68;2.63;;;;;;;;;;7386251;19;20021;-75
2022/03/06 00:21:33;;;;;;;4.28;2.17;;;;;;;;;;7390441;19;20505;-75
2022/03/06 00:23:58;;;;;;;3.47;1.80;;;;;;;;;;7388751;19;20338;-74
2022/03/06 00:26:24;;;;;;;4.63;2.15;;;;;;;;;;7387973;19;20078;-75
2022/03/06 00:28:49;;;;;;;5.03;2.38;;;;;;;;;;7385432;19;20005;-75
2022/03/06 00:31:14;;;;;;;5.22;2.15;;;;;;;;;;7390065;19;20010;-75
2022/03/06 00:33:39;;;;;;;5.78;2.35;;;;;;;;;;7389973;19;20074;-75
2022/03/06 00:36:05;;;;;;;5.07;2.20;;;;;;;;;;7388603;19;20007;-76
2022/03/06 00:38:30;;;;;;;4.75;1.95;;;;;;;;;;7388498;19;20003;-75
2022/03/06 00:40:56;;;;;;;6.18;2.58;;;;;;;;;;7390299;19;20007;-74
2022/03/06 00:43:21;;;;;;;5.55;2.20;;;;;;;;;;7388396;19;20002;-72
2022/03/06 00:45:46;;;;;;;6.60;2.13;;;;;;;;;;7389242;19;20480;-75
2022/03/06 00:48:12;;;;;;;5.00;2.42;;;;;;;;;;7387955;19;20096;-74
2022/03/06 00:50:39;;;;;;;4.32;2.13;;;;;;;;;;7388634;19;20010;-74
2022/03/06 00:53:05;;;;;;;5.40;3.17;;;;;;;;;;7390669;19;20005;-74
2022/03/06 00:55:31;;;;;;;5.80;2.35;;;;;;;;;;7389170;19;20090;-75
2022/03/06 00:57:57;;;;;;;6.03;2.25;;;;;;;;;;7389806;19;20359;-74
2022/03/06 01:00:23;;;;;;;6.65;2.45;;;;;;;;;;7387848;19;20029;-73
2022/03/06 01:02:48;;;;;;;4.80;1.83;;;;;;;;;;7389300;19;20460;-73
2022/03/06 01:05:14;;;;;;;5.72;2.20;;;;;;;;;;7388970;19;20156;-75
2022/03/06 01:07:40;;;;;;;5.43;2.50;;;;;;;;;;7386684;19;20618;-75
2022/03/06 01:10:06;;;;;;;6.32;2.45;;;;;;;;;;7388860;19;20011;-75
2022/03/06 01:12:32;;;;;;;5.25;2.60;;;;;;;;;;7388372;19;20002;-75
2022/03/06 01:14:57;;;;;;;5.32;2.40;;;;;;;;;;7389764;19;20010;-76
2022/03/06 01:17:22;;;;;;;4.63;2.47;;;;;;;;;;7387452;19;20003;-74
2022/03/06 01:19:49;;;;;;;5.43;2.50;;;;;;;;;;7388531;19;20441;-75
2022/03/06 01:22:15;;;;;;;4.57;2.30;;;;;;;;;;7388784;19;20210;-72
2022/03/06 01:24:40;;;;;;;5.03;2.30;;;;;;;;;;7389312;19;20403;-72
2022/03/06 01:27:05;;;;;;;3.47;1.65;;;;;;;;;;7385244;19;20346;-73
2022/03/06 01:29:31;;;;;;;7.55;2.75;;;;;;;;;;7388450;19;20011;-75
2022/03/06 01:31:56;;;;;;;5.57;2.42;;;;;;;;;;7385518;19;20006;-75
2022/03/06 01:34:21;;;;;;;3.97;2.40;;;;;;;;;;7389562;19;20020;-73
2022/03/06 01:36:46;;;;;;;5.65;2.22;;;;;;;;;;7383627;19;20006;-75
2022/03/06 01:39:12;;;;;;;6.13;2.35;;;;;;;;;;7386163;19;20085;-75
2022/03/06 01:41:37;;;;;;;6.88;2.67;;;;;;;;;;7386798;19;20476;-73
2022/03/06 01:44:04;;;;;;;4.93;2.30;;;;;;;;;;7388701;19;20535;-75
2022/03/06 01:46:29;;;;;;;5.20;2.63;;;;;;;;;;7385224;19;20096;-75
2022/03/06 01:48:54;;;;;;;7.00;2.97;;;;;;;;;;7382627;19;20481;-75
2022/03/06 01:51:20;;;;;;;5.70;2.47;;;;;;;;;;7386683;19;20002;-73
2022/03/06 01:53:54;;;;;;;6.00;2.70;;;;;;;;;;7386583;19;20006;-73
2022/03/06 01:56:40;;;;;;;5.30;2.17;;;;;;;;;;7385057;19;20341;-75
2022/03/06 01:59:06;;;;;;;8.48;2.80;;;;;;;;;;7386035;19;20031;-75
2022/03/06 02:01:32;;;;;;;4.80;2.20;;;;;;;;;;7386707;19;20000;-75
2022/03/06 02:03:57;;;;;;;8.18;2.38;;;;;;;;;;7385848;19;20016;-75
2022/03/06 02:06:23;;;;;;;7.55;3.00;;;;;;;;;;7385806;19;20033;-75
2022/03/06 02:08:49;;;;;;;6.10;2.40;;;;;;;;;;7382951;19;20015;-74
2022/03/06 02:11:15;;;;;;;5.40;2.58;;;;;;;;;;7386456;19;20649;-75
2022/03/06 02:13:43;;;;;;;5.20;2.28;;;;;;;;;;7385680;19;20025;-74
2022/03/06 02:16:09;;;;;;;5.55;2.53;;;;;;;;;;7385131;19;22004;-75
2022/03/06 02:18:34;;;;;;;4.97;2.60;;;;;;;;;;7385195;19;20014;-75
2022/03/06 02:21:06;;;;;;;4.85;2.50;;;;;;;;;;7385153;19;20022;-75
2022/03/06 02:23:32;;;;;;;5.22;2.22;;;;;;;;;;7385689;19;20019;-74
2022/03/06 02:25:58;;;;;;;6.95;2.70;;;;;;;;;;7384929;19;20025;-75
2022/03/06 02:28:23;;;;;;;5.43;2.60;;;;;;;;;;7383588;19;20449;-73
2022/03/06 02:30:48;;;;;;;5.63;2.25;;;;;;;;;;7386251;19;20018;-75
2022/03/06 02:33:14;;;;;;;6.28;2.83;;;;;;;;;;7385275;19;20002;-75
2022/03/06 02:35:40;;;;;;;6.43;2.67;;;;;;;;;;7385098;19;20014;-72
2022/03/06 02:38:06;;;;;;;6.40;2.25;;;;;;;;;;7382836;19;20042;-72
2022/03/06 02:40:37;;;;;;;5.85;2.72;;;;;;;;;;7385571;19;20011;-74
2022/03/06 02:43:05;;;;;;;4.90;2.35;;;;;;;;;;7384574;19;20093;-73
2022/03/06 02:45:30;;;;;;;6.82;2.75;;;;;;;;;;7384271;19;20010;-74
2022/03/06 02:47:57;;;;;;;5.55;2.50;;;;;;;;;;7384454;19;20016;-74
2022/03/06 02:50:25;;;;;;;7.80;2.70;;;;;;;;;;7386284;19;20010;-75
2022/03/06 02:52:52;;;;;;;5.95;2.85;;;;;;;;;;7391454;19;20002;-75
2022/03/06 02:55:17;;;;;;;5.03;2.53;;;;;;;;;;7391870;19;20021;-75
2022/03/06 02:57:44;;;;;;;6.35;2.55;;;;;;;;;;7391937;19;20025;-75
2022/03/06 03:00:13;;;;;;;6.93;2.25;;;;;;;;;;7391764;19;20007;-75
2022/03/06 03:02:39;;;;;;;7.75;2.60;;;;;;;;;;7392455;19;20469;-73
2022/03/06 03:05:05;;;;;;;7.55;2.45;;;;;;;;;;7392061;19;20014;-75
2022/03/06 03:07:30;;;;;;;8.15;2.70;;;;;;;;;;7391141;19;20010;-74
2022/03/06 03:09:56;;;;;;;6.55;2.65;;;;;;;;;;7391056;19;20023;-75
2022/03/06 03:12:21;;;;;;;7.22;2.78;;;;;;;;;;7391372;19;20039;-75
2022/03/06 03:14:47;;;;;;;6.43;2.75;;;;;;;;;;7392938;19;20062;-73
2022/03/06 03:17:12;;;;;;;8.70;2.97;;;;;;;;;;7392134;19;20014;-75
2022/03/06 03:19:37;;;;;;;8.93;2.45;;;;;;;;;;7389511;19;20010;-73
2022/03/06 03:22:03;;;;;;;6.43;2.53;;;;;;;;;;7391041;19;20475;-75
2022/03/06 03:24:29;;;;;;;8.50;3.08;;;;;;;;;;7392005;19;20661;-75
2022/03/06 03:26:54;;;;;;;7.28;2.85;;;;;;;;;;7385317;19;20327;-75
2022/03/06 03:29:20;;;;;;;7.97;2.80;;;;;;;;;;7389076;19;20479;-75
2022/03/06 03:31:45;;;;;;;5.47;2.38;;;;;;;;;;7390660;19;20023;-75
2022/03/06 03:34:10;;;;;;;7.63;3.00;;;;;;;;;;7390936;19;20085;-74
2022/03/06 03:36:36;;;;;;;7.28;3.00;;;;;;;;;;7388266;19;20010;-74
2022/03/06 03:39:02;;;;;;;6.25;2.55;;;;;;;;;;7390437;19;20011;-75
2022/03/06 03:41:28;;;;;;;7.30;2.92;;;;;;;;;;7391823;19;20349;-74
2022/03/06 03:43:53;;;;;;;4.57;2.28;;;;;;;;;;7388523;19;20015;-74
2022/03/06 03:46:19;;;;;;;6.72;2.50;;;;;;;;;;7388261;19;19998;-75
2022/03/06 03:48:44;;;;;;;7.75;2.80;;;;;;;;;;7385652;19;20082;-75
2022/03/06 03:51:10;;;;;;;5.60;2.55;;;;;;;;;;7389688;19;20034;-73
2022/03/06 03:53:36;;;;;;;6.22;2.67;;;;;;;;;;7389193;19;20375;-74
2022/03/06 03:56:01;;;;;;;6.05;2.70;;;;;;;;;;7390130;19;20439;-75
2022/03/06 03:58:27;;;;;;;4.38;1.83;;;;;;;;;;7388163;19;20030;-74
2022/03/06 04:00:55;;;;;;;5.82;2.63;;;;;;;;;;7389793;19;20017;-75
2022/03/06 04:03:21;;;;;;;6.00;2.83;;;;;;;;;;7387723;19;20007;-73
2022/03/06 04:05:46;;;;;;;4.72;2.00;;;;;;;;;;7388203;19;20051;-74
2022/03/06 04:08:11;;;;;;;7.43;2.58;;;;;;;;;;7388559;19;20014;-74
2022/03/06 04:10:36;;;;;;;5.43;2.17;;;;;;;;;;7389650;19;20394;-73
2022/03/06 04:13:02;;;;;;;5.72;2.63;;;;;;;;;;7387688;19;20772;-74
2022/03/06 04:15:27;;;;;;;5.00;2.28;;;;;;;;;;7386275;19;20010;-74
2022/03/06 04:17:53;;;;;;;6.43;2.80;;;;;;;;;;7387385;19;20017;-74
2022/03/06 04:20:18;;;;;;;5.90;2.35;;;;;;;;;;7387289;19;20002;-75
2022/03/06 04:22:43;;;;;;;4.65;2.35;;;;;;;;;;7389237;19;20337;-74
2022/03/06 04:25:09;;;;;;;5.70;2.25;;;;;;;;;;7391552;19;20039;-74
2022/03/06 04:27:34;;;;;;;5.07;2.13;;;;;;;;;;7388476;19;20006;-75
2022/03/06 04:29:59;;;;;;;5.07;2.50;;;;;;;;;;7389625;19;20015;-74
2022/03/06 04:32:25;;;;;;;7.30;2.35;;;;;;;;;;7391934;19;20010;-74
2022/03/06 04:34:51;;;;;;;8.93;2.47;;;;;;;;;;7389980;19;20033;-74
2022/03/06 04:37:16;;;;;;;7.55;2.67;;;;;;;;;;7389970;19;20010;-73
2022/03/06 04:39:41;;;;;;;7.50;3.33;;;;;;;;;;7391465;19;20039;-73
2022/03/06 04:42:07;;;;;;;7.00;2.85;;;;;;;;;;7390999;19;20355;-73
2022/03/06 04:44:32;;;;;;;6.55;2.53;;;;;;;;;;7389059;19;20002;-73
2022/03/06 04:46:57;;;;;;;7.32;2.58;;;;;;;;;;7387275;19;20007;-74
2022/03/06 04:49:23;;;;;;;6.40;2.40;;;;;;;;;;7384176;19;20013;-74
2022/03/06 04:51:48;;;;;;;8.45;3.05;;;;;;;;;;7386831;19;20018;-73
2022/03/06 04:54:13;;;;;;;7.00;2.47;;;;;;;;;;7388957;19;20006;-73
2022/03/06 04:56:38;;;;;;;6.65;2.70;;;;;;;;;;7386255;19;20007;-73
2022/03/06 04:59:04;;;;;;;7.45;2.72;;;;;;;;;;7387999;19;20357;-73
2022/03/06 05:01:30;;;;;;;7.93;3.13;;;;;;;;;;7387940;19;20006;-73
2022/03/06 05:03:56;;;;;;;6.00;2.33;;;;;;;;;;7386680;19;20010;-74
2022/03/06 05:06:22;;;;;;;6.40;2.90;;;;;;;;;;7385009;19;20045;-73
2022/03/06 05:08:47;;;;;;;5.75;2.45;;;;;;;;;;7383973;19;20021;-73
2022/03/06 05:11:13;;;;;;;6.82;2.00;;;;;;;;;;7387370;19;20044;-73
2022/03/06 05:13:38;;;;;;;6.55;2.35;;;;;;;;;;7385971;19;20417;-73
2022/03/06 05:16:04;;;;;;;6.85;2.72;;;;;;;;;;7385419;19;20039;-73
2022/03/06 05:18:29;;;;;;;8.05;2.55;;;;;;;;;;7385930;19;20043;-73
2022/03/06 05:20:55;;;;;;;7.93;2.67;;;;;;;;;;7387267;19;20022;-73
2022/03/06 05:23:21;;;;;;;7.90;3.20;;;;;;;;;;7386518;19;20007;-73
2022/03/06 05:25:46;;;;;;;7.13;2.90;;;;;;;;;;7387118;19;20327;-73
2022/03/06 05:28:12;;;;;;;10.48;3.05;;;;;;;;;;7377079;19;20124;-74
2022/03/06 05:30:37;;;;;;;7.97;3.30;;;;;;;;;;7384382;19;20070;-72
2022/03/06 05:33:03;;;;;;;5.57;2.42;;;;;;;;;;7350499;19;20014;-73
2022/03/06 05:35:29;;;;;;;9.60;3.08;;;;;;;;;;7381723;19;20351;-73
2022/03/06 05:37:54;;;;;;;6.53;3.13;;;;;;;;;;7381589;19;20003;-73
2022/03/06 05:40:20;;;;;;;7.25;3.15;;;;;;;;;;7381454;19;20017;-72
2022/03/06 05:42:45;;;;;;;6.07;2.33;;;;;;;;;;7380062;19;20040;-74
2022/03/06 05:45:10;;;;;;;6.68;2.83;;;;;;;;;;7386597;19;20009;-73
2022/03/06 05:47:36;;;;;;;6.25;2.40;;;;;;;;;;7385904;19;20023;-73
2022/03/06 05:50:04;;;;;;;6.97;2.65;;;;;;;;;;7383547;19;20353;-73
2022/03/06 05:52:30;;;;;;;12.02;3.05;;;;;;;;;;7383574;19;20062;-73
2022/03/06 05:54:55;;;;;;;17.55;4.90;;;;;;;;;;7385710;19;20025;-73
2022/03/06 05:57:21;;;;;;;16.70;4.93;;;;;;;;;;7383504;19;20027;-74
2022/03/06 05:59:46;;;;;;;14.57;4.75;;;;;;;;;;7382250;19;20010;-73
2022/03/06 06:02:12;;;;;;;19.25;4.80;;;;;;;;;;7372610;19;20118;-73
2022/03/06 06:04:37;;;;;;;20.02;5.63;;;;;;;;;;6885160;19;20144;-76
2022/03/06 06:07:03;;;;;;;12.93;4.95;;;;;;;;;;7334638;19;20458;-73
2022/03/06 06:09:28;;;;;;;19.88;5.75;;;;;;;;;;7379407;19;20011;-73
2022/03/06 06:11:54;;;;;;;13.25;4.38;;;;;;;;;;7378486;19;20006;-73
2022/03/06 06:14:19;;;;;;;22.50;5.03;;;;;;;;;;7382075;19;20652;-73
2022/03/06 06:16:44;;;;;;;15.52;4.45;;;;;;;;;;7349735;19;20388;-73
2022/03/06 06:19:10;;;;;;;10.52;4.07;;;;;;;;;;7382605;19;19999;-73
2022/03/06 06:21:35;;;;;;;9.23;3.70;;;;;;;;;;7381758;19;20003;-73
2022/03/06 06:24:01;;;;;;;10.70;3.40;;;;;;;;;;7378879;19;20006;-73
2022/03/06 06:26:26;;;;;;;7.78;3.20;;;;;;;;;;7379752;19;20003;-74
2022/03/06 06:28:55;;;;;;;6.50;2.65;;;;;;;;;;7376998;19;20006;-73
2022/03/06 06:31:23;;;;;;;8.20;3.58;;;;;;;;;;7380240;19;20011;-73
2022/03/06 06:33:48;;;;;;;7.75;3.13;;;;;;;;;;7379445;19;20022;-73
2022/03/06 06:36:13;;;;;;;8.50;3.90;;;;;;;;;;7381100;19;20006;-73
2022/03/06 06:38:39;;;;;;;7.90;3.20;;;;;;;;;;7378144;19;20706;-73
2022/03/06 06:41:04;;;;;;;8.45;3.10;;;;;;;;;;7384449;19;20003;-72
2022/03/06 06:43:29;;;;;;;8.05;3.28;;;;;;;;;;7381967;19;20024;-74
2022/03/06 06:45:54;;;;;;;7.25;2.88;;;;;;;;;;7381146;19;20014;-73
2022/03/06 06:48:20;;;;;;;6.53;2.85;;;;;;;;;;7379099;19;20010;-73
2022/03/06 06:50:45;;;;;;;7.93;3.10;;;;;;;;;;7383014;19;20006;-72
2022/03/06 06:53:11;;;;;;;8.77;3.40;;;;;;;;;;7382276;19;20210;-73
2022/03/06 06:55:37;;;;;;;8.73;3.20;;;;;;;;;;7381523;19;20014;-73
2022/03/06 06:58:03;;;;;;;8.45;3.30;;;;;;;;;;7379858;19;20007;-74
2022/03/06 07:00:29;;;;;;;9.05;3.20;;;;;;;;;;7380176;19;20249;-73
2022/03/06 07:02:54;;;;;;;8.20;3.13;;;;;;;;;;7381859;19;20050;-73
2022/03/06 07:05:20;;;;;;;5.57;2.70;;;;;;;;;;7382279;19;20011;-73
2022/03/06 07:07:45;;;;;;;6.25;2.58;;;;;;;;;;7381797;19;20344;-73
2022/03/06 07:10:10;;;;;;;8.50;3.17;;;;;;;;;;7383316;19;20800;-73
2022/03/06 07:12:44;;;;;;;6.65;2.92;;;;;;;;;;7379620;19;20451;-74
2022/03/06 07:15:11;;;;;;;7.30;3.55;;;;;;;;;;7378811;19;20018;-74
2022/03/06 07:17:36;;;;;;;9.15;3.45;;;;;;;;;;7380790;19;20327;-72
2022/03/06 07:20:01;;;;;;;6.13;2.90;;;;;;;;;;7380689;19;20731;-72
2022/03/06 07:22:27;;;;;;;8.73;3.13;;;;;;;;;;7377049;19;20368;-73
2022/03/06 07:24:52;;;;;;;7.00;3.08;;;;;;;;;;7379695;19;20325;-73
2022/03/06 07:27:17;;;;;;;8.30;3.05;;;;;;;;;;7339000;19;20021;-73
2022/03/06 07:29:43;;;;;;;8.63;3.70;;;;;;;;;;7379111;19;20021;-73
2022/03/06 07:32:08;;;;;;;5.63;2.80;;;;;;;;;;7378664;19;20306;-73
2022/03/06 07:34:33;;;;;;;6.10;2.83;;;;;;;;;;7380299;19;20018;-73
2022/03/06 07:36:59;;;;;;;8.70;3.33;;;;;;;;;;7376802;19;20002;-73
2022/03/06 07:39:24;;;;;;;6.65;3.13;;;;;;;;;;7388513;19;20358;-73
2022/03/06 07:41:49;;;;;;;7.05;3.35;;;;;;;;;;7386865;19;19998;-73
2022/03/06 07:44:15;;;;;;;6.22;3.15;;;;;;;;;;7387435;19;20468;-73
2022/03/06 07:46:41;;;;;;;8.40;3.72;;;;;;;;;;7385324;19;20107;-73
2022/03/06 07:49:06;;;;;;;7.03;3.58;;;;;;;;;;7384492;19;20017;-72
2022/03/06 07:51:32;;;;;;;10.18;4.15;;;;;;;;;;7388249;19;20066;-74
2022/03/06 07:53:57;;;;;;;8.25;3.67;;;;;;;;;;7386561;19;20006;-73
2022/03/06 07:56:22;;;;;;;7.82;3.47;;;;;;;;;;7385868;19;20013;-72
2022/03/06 07:58:47;;;;;;;6.93;3.55;;;;;;;;;;7385953;19;20370;-73
2022/03/06 08:01:13;;;;;;;7.28;3.80;;;;;;;;;;7354086;19;20002;-72
2022/03/06 08:03:38;;;;;;;9.35;4.00;;;;;;;;;;7388578;19;20002;-73
2022/03/06 08:06:04;;;;;;;9.50;3.97;;;;;;;;;;7387672;19;20074;-74
2022/03/06 08:08:29;;;;;;;8.45;3.85;;;;;;;;;;7387495;19;20011;-73
2022/03/06 08:10:54;;;;;;;9.52;4.32;;;;;;;;;;7388632;19;20023;-74
2022/03/06 08:13:19;;;;;;;10.65;4.57;;;;;;;;;;7388516;19;20017;-73
2022/03/06 08:15:45;;;;;;;11.45;4.38;;;;;;;;;;7388364;19;20006;-73
2022/03/06 08:18:10;;;;;;;8.02;3.90;;;;;;;;;;7387843;19;20006;-73
2022/03/06 08:20:35;;;;;;;6.95;4.18;;;;;;;;;;7390260;19;20006;-72
2022/03/06 08:23:01;;;;;;;8.20;3.92;;;;;;;;;;7382931;19;20040;-73
2022/03/06 08:25:26;;;;;;;7.38;3.88;;;;;;;;;;7386857;19;20006;-73
2022/03/06 08:27:52;;;;;;;9.45;4.70;;;;;;;;;;7387317;19;20033;-72
2022/03/06 08:30:17;;;;;;;11.43;4.30;;;;;;;;;;7385090;19;20322;-73
2022/03/06 08:32:42;;;;;;;8.05;4.25;;;;;;;;;;7386184;19;20010;-73
2022/03/06 08:35:08;;;;;;;17.35;8.88;;;;;;;;;;7387581;19;20022;-73
2022/03/06 08:37:34;;;;;;;11.88;5.28;;;;;;;;;;7387916;19;20007;-73
2022/03/06 08:39:59;;;;;;;14.23;6.60;;;;;;;;;;7387726;19;20002;-72
2022/03/06 08:42:25;;;;;;;9.57;4.93;;;;;;;;;;7385665;19;20066;-72
2022/03/06 08:44:50;;;;;;;9.00;4.63;;;;;;;;;;7386913;19;20035;-73
2022/03/06 08:47:16;;;;;;;13.48;5.70;;;;;;;;;;7386543;19;20007;-73
2022/03/06 08:49:41;;;;;;;11.68;5.05;;;;;;;;;;7356698;19;20073;-72
2022/03/06 08:52:07;;;;;;;9.98;4.97;;;;;;;;;;7384179;19;20029;-72
2022/03/06 08:54:33;;;;;;;10.13;5.28;;;;;;;;;;7387772;19;20012;-73
2022/03/06 08:56:58;;;;;;;10.85;5.10;;;;;;;;;;7385264;19;20424;-72
2022/03/06 08:59:24;;;;;;;10.65;5.20;;;;;;;;;;7381876;19;20489;-72
2022/03/06 09:01:49;;;;;;;10.02;5.00;;;;;;;;;;7383187;19;21204;-72
2022/03/06 09:04:15;;;;;;;9.98;4.95;;;;;;;;;;7386574;19;20003;-76
2022/03/06 09:06:41;;;;;;;13.68;5.10;;;;;;;;;;7382961;19;20076;-72
2022/03/06 09:09:07;;;;;;;11.02;4.70;;;;;;;;;;7382919;19;19998;-75
2022/03/06 09:11:32;;;;;;;9.30;4.93;;;;;;;;;;7385237;19;20027;-71
2022/03/06 09:13:59;;;;;;;13.10;6.07;;;;;;;;;;7385415;19;20011;-73
2022/03/06 09:16:25;;;;;;;10.48;5.30;;;;;;;;;;7382853;19;20011;-72
2022/03/06 09:18:51;;;;;;;13.82;6.10;;;;;;;;;;7384361;19;20015;-72
2022/03/06 09:21:16;;;;;;;9.73;4.75;;;;;;;;;;7384372;19;20011;-72
2022/03/06 09:23:41;;;;;;;9.60;4.57;;;;;;;;;;7383812;19;20002;-75
2022/03/06 09:26:06;;;;;;;8.13;4.35;;;;;;;;;;7384368;19;20391;-75
2022/03/06 09:28:32;;;;;;;10.65;4.70;;;;;;;;;;7380412;19;20432;-74
2022/03/06 09:30:57;;;;;;;24.48;10.50;;;;;;;;;;7383230;19;20002;-71
2022/03/06 09:33:22;;;;;;;12.23;5.40;;;;;;;;;;7384474;19;20006;-73
2022/03/06 09:35:48;;;;;;;8.95;4.85;;;;;;;;;;7383526;19;20015;-72
2022/03/06 09:38:13;;;;;;;9.27;5.00;;;;;;;;;;7382924;19;20496;-75
2022/03/06 09:40:42;;;;;;;10.57;4.75;;;;;;;;;;7385683;19;20014;-75
2022/03/06 09:43:13;;;;;;;10.75;4.95;;;;;;;;;;7384616;19;20023;-72
2022/03/06 09:45:40;;;;;;;8.77;4.47;;;;;;;;;;7381580;19;20017;-73
2022/03/06 09:48:06;;;;;;;9.68;4.45;;;;;;;;;;7378458;19;20974;-72
2022/03/06 09:50:32;;;;;;;9.15;4.82;;;;;;;;;;7379714;19;20110;-72
2022/03/06 09:52:58;;;;;;;11.07;4.15;;;;;;;;;;7374777;19;20014;-71
2022/03/06 09:55:23;;;;;;;8.68;4.70;;;;;;;;;;7374955;19;20014;-72
2022/03/06 09:57:54;;;;;;;10.32;4.45;;;;;;;;;;7375988;19;20440;-72
2022/03/06 10:00:19;;;;;;;10.00;5.03;;;;;;;;;;7376186;19;20015;-72
2022/03/06 10:02:57;;;;;;;10.00;5.07;;;;;;;;;;7377659;19;20006;-72
2022/03/06 10:05:40;;;;;;;11.25;4.85;;;;;;;;;;7379337;19;20017;-72
2022/03/06 10:08:28;;;;;;;7.07;4.13;;;;;;;;;;7377391;19;20006;-73
2022/03/06 10:11:01;;;;;;;9.10;4.90;;;;;;;;;;7378922;19;20014;-71
2022/03/06 10:13:35;;;;;;;9.38;4.57;;;;;;;;;;7373092;19;20123;-71
2022/03/06 10:16:18;;;;;;;7.25;4.28;;;;;;;;;;7380172;19;20053;-72
2022/03/06 10:18:51;;;;;;;8.40;4.28;;;;;;;;;;7378270;19;20021;-74
2022/03/06 10:21:28;;;;;;;7.15;4.47;;;;;;;;;;7379332;19;20118;-72
2022/03/06 10:23:59;;;;;;;6.97;3.92;;;;;;;;;;7377265;19;20011;-74
2022/03/06 10:26:27;;;;;;;10.20;4.53;;;;;;;;;;7379938;19;20023;-72
2022/03/06 10:29:01;;;;;;;10.65;5.32;;;;;;;;;;7377819;19;20164;-73
2022/03/06 10:31:32;;;;;;;9.07;4.70;;;;;;;;;;7376902;19;20027;-73
2022/03/06 10:34:09;;;;;;;8.30;4.40;;;;;;;;;;7378260;19;20382;-75
2022/03/06 10:36:34;;;;;;;8.13;4.57;;;;;;;;;;7377875;19;20022;-75
2022/03/06 10:39:01;;;;;;;9.63;4.80;;;;;;;;;;7385256;19;20006;-74
2022/03/06 10:41:38;;;;;;;9.68;4.93;;;;;;;;;;7379706;19;20014;-72
2022/03/06 10:44:05;;;;;;;11.43;5.18;;;;;;;;;;7378728;19;20018;-74
2022/03/06 10:46:33;;;;;;;14.35;6.55;;;;;;;;;;7378794;19;20328;-73
2022/03/06 10:49:02;;;;;;;9.95;4.90;;;;;;;;;;7377696;19;20010;-74
2022/03/06 10:51:29;;;;;;;12.48;5.63;;;;;;;;;;7385902;19;20362;-73
2022/03/06 10:53:59;;;;;;;10.65;5.38;;;;;;;;;;7383369;19;20066;-72
2022/03/06 10:56:25;;;;;;;8.82;4.85;;;;;;;;;;7383488;19;20005;-72
2022/03/06 10:58:51;;;;;;;10.00;4.55;;;;;;;;;;7382812;19;20577;-74
2022/03/06 11:01:17;;;;;;;10.18;4.85;;;;;;;;;;7384134;19;20035;-72
2022/03/06 11:03:43;;;;;;;7.50;4.55;;;;;;;;;;7381802;19;20039;-74
2022/03/06 11:06:11;;;;;;;12.23;5.05;;;;;;;;;;7384443;19;20054;-72
2022/03/06 11:08:37;;;;;;;10.63;5.63;;;;;;;;;;7378250;19;20148;-72
2022/03/06 11:11:07;;;;;;;11.93;5.55;;;;;;;;;;7385718;19;20009;-72
2022/03/06 11:13:33;;;;;;;12.68;5.40;;;;;;;;;;7389012;19;20015;-72
2022/03/06 11:16:00;;;;;;;8.95;5.03;;;;;;;;;;7390097;19;20083;-73
2022/03/06 11:18:26;;;;;;;9.20;4.85;;;;;;;;;;7388438;19;20006;-73
2022/03/06 11:20:57;;;;;;;9.25;4.45;;;;;;;;;;7391762;19;20027;-73
2022/03/06 11:23:33;;;;;;;11.23;5.80;;;;;;;;;;7389829;19;20018;-72
2022/03/06 11:26:10;;;;;;;10.82;5.45;;;;;;;;;;7388770;19;20732;-72
2022/03/06 11:28:50;;;;;;;9.10;5.20;;;;;;;;;;7387568;19;20010;-72
2022/03/06 11:31:16;;;;;;;9.15;4.50;;;;;;;;;;7390404;19;19995;-71
2022/03/06 11:33:42;;;;;;;9.13;4.70;;;;;;;;;;7390144;19;20011;-72
2022/03/06 11:36:21;;;;;;;8.00;4.60;;;;;;;;;;7390496;19;20013;-72
2022/03/06 11:38:48;;;;;;;9.57;4.68;;;;;;;;;;7389040;19;20056;-72
2022/03/06 11:41:14;;;;;;;8.23;4.60;;;;;;;;;;7390744;19;19998;-73
2022/03/06 11:43:46;;;;;;;10.73;5.07;;;;;;;;;;7388185;19;20030;-73
2022/03/06 11:46:17;;;;;;;16.40;7.07;;;;;;;;;;7390661;19;20114;-73
2022/03/06 11:48:42;;;;;;;13.52;5.68;;;;;;;;;;7387026;19;20106;-73
2022/03/06 11:51:14;;;;;;;9.00;5.28;;;;;;;;;;7391747;19;20109;-73
2022/03/06 11:53:57;;;;;;;9.77;5.10;;;;;;;;;;7389154;19;20017;-72
2022/03/06 11:56:32;;;;;;;9.57;5.10;;;;;;;;;;7388358;19;19999;-74
2022/03/06 11:59:02;;;;;;;8.18;4.45;;;;;;;;;;7389498;19;20035;-72
2022/03/06 12:01:33;;;;;;;7.75;4.68;;;;;;;;;;7392137;19;20070;-72
2022/03/06 12:04:08;;;;;;;9.57;4.28;;;;;;;;;;7389582;19;20021;-73
2022/03/06 12:06:41;;;;;;;9.45;4.75;;;;;;;;;;7389033;19;20010;-71
2022/03/06 12:09:14;;;;;;;8.73;4.97;;;;;;;;;;7385264;19;20013;-73
2022/03/06 12:11:41;;;;;;;9.45;5.43;;;;;;;;;;7389947;19;19999;-70
2022/03/06 12:14:14;;;;;;;11.50;5.28;;;;;;;;;;7388283;19;20370;-73
2022/03/06 12:17:04;;;;;;;11.25;4.95;;;;;;;;;;7386475;19;20006;-73
2022/03/06 12:19:30;;;;;;;11.45;4.97;;;;;;;;;;7389499;19;20010;-74
2022/03/06 12:22:21;;;;;;;10.50;5.13;;;;;;;;;;7389171;19;19998;-72
2022/03/06 12:24:48;;;;;;;9.13;5.35;;;;;;;;;;7388429;19;20402;-71
2022/03/06 12:27:18;;;;;;;11.23;4.72;;;;;;;;;;7387681;19;20013;-73
2022/03/06 12:29:50;;;;;;;6.78;4.40;;;;;;;;;;7387139;19;20003;-72
2022/03/06 12:32:25;;;;;;;9.55;4.50;;;;;;;;;;7387039;19;20050;-73
2022/03/06 12:34:58;;;;;;;8.85;4.85;;;;;;;;;;7388645;19;20017;-73
2022/03/06 12:37:31;;;;;;;8.70;4.65;;;;;;;;;;7387945;19;20015;-73
2022/03/06 12:39:58;;;;;;;9.82;5.05;;;;;;;;;;7387948;19;20015;-71
2022/03/06 12:42:29;;;;;;;7.68;4.40;;;;;;;;;;7388593;19;20018;-72
2022/03/06 12:45:00;;;;;;;10.15;4.60;;;;;;;;;;7388562;19;20014;-73
2022/03/06 12:47:26;;;;;;;10.57;4.57;;;;;;;;;;7388010;19;20015;-72
2022/03/06 12:49:53;;;;;;;9.63;5.15;;;;;;;;;;7386231;19;20014;-72
2022/03/06 12:52:21;;;;;;;10.00;5.30;;;;;;;;;;7389069;19;20426;-72
2022/03/06 12:54:48;;;;;;;8.40;4.68;;;;;;;;;;7388000;19;20014;-75
2022/03/06 12:57:13;;;;;;;7.30;4.50;;;;;;;;;;7386090;19;20017;-72
2022/03/06 12:59:43;;;;;;;8.90;4.60;;;;;;;;;;7388323;19;20329;-73
2022/03/06 13:02:09;;;;;;;10.05;5.32;;;;;;;;;;7388785;19;20070;-72
2022/03/06 13:04:36;;;;;;;12.88;5.85;;;;;;;;;;7387898;19;20071;-72
2022/03/06 13:07:03;;;;;;;9.70;4.93;;;;;;;;;;7385755;19;20411;-74
2022/03/06 13:09:34;;;;;;;9.25;4.55;;;;;;;;;;7386276;19;20035;-74
2022/03/06 13:12:00;;;;;;;9.50;4.72;;;;;;;;;;7387981;19;20065;-73
2022/03/06 13:14:51;;;;;;;7.70;4.55;;;;;;;;;;7388710;19;20078;-73
2022/03/06 13:17:19;;;;;;;9.30;5.30;;;;;;;;;;7385289;19;20130;-73
2022/03/06 13:19:49;;;;;;;8.40;5.05;;;;;;;;;;7386711;19;20019;-74
2022/03/06 13:22:16;;;;;;;7.38;4.38;;;;;;;;;;7387510;19;20181;-72
2022/03/06 13:24:50;;;;;;;10.00;4.85;;;;;;;;;;7385321;19;20433;-73
2022/03/06 13:27:24;;;;;;;9.32;5.35;;;;;;;;;;7385717;19;20011;-71
2022/03/06 13:29:58;;;;;;;9.88;5.30;;;;;;;;;;7387059;19;20010;-72
2022/03/06 13:32:28;;;;;;;9.47;5.20;;;;;;;;;;7386262;19;20010;-72
2022/03/06 13:34:57;;;;;;;9.38;4.85;;;;;;;;;;7383463;19;20021;-73
2022/03/06 13:37:34;;;;;;;7.60;4.63;;;;;;;;;;7385491;19;20014;-73
2022/03/06 13:39:59;;;;;;;9.05;4.97;;;;;;;;;;7385647;19;20016;-75
2022/03/06 13:42:33;;;;;;;7.93;4.65;;;;;;;;;;7385993;19;20078;-73
2022/03/06 13:45:01;;;;;;;11.02;5.20;;;;;;;;;;7386385;19;20017;-73
2022/03/06 13:47:26;;;;;;;8.30;4.35;;;;;;;;;;7386668;19;20018;-73
2022/03/06 13:50:01;;;;;;;9.70;4.68;;;;;;;;;;7385840;19;20345;-76
2022/03/06 13:52:34;;;;;;;8.68;4.53;;;;;;;;;;7383291;19;20018;-73
2022/03/06 13:55:09;;;;;;;8.73;5.18;;;;;;;;;;7386442;19;20488;-74
2022/03/06 13:57:34;;;;;;;10.20;5.32;;;;;;;;;;7385793;19;20460;-73
2022/03/06 14:00:26;;;;;;;8.30;5.10;;;;;;;;;;7381186;19;20003;-75
2022/03/06 14:03:08;;;;;;;8.32;5.00;;;;;;;;;;7378181;19;20038;-73
2022/03/06 14:05:36;;;;;;;7.45;4.57;;;;;;;;;;7377599;19;20477;-74
2022/03/06 14:08:17;;;;;;;8.55;5.38;;;;;;;;;;7377757;19;20018;-72
2022/03/06 14:10:45;;;;;;;8.70;5.15;;;;;;;;;;7363760;19;20748;-74
2022/03/06 14:13:29;;;;;;;9.20;4.75;;;;;;;;;;7375544;19;20575;-75
2022/03/06 14:16:11;;;;;;;9.30;5.00;;;;;;;;;;7370075;19;20019;-74
2022/03/06 14:18:44;;;;;;;8.85;4.88;;;;;;;;;;7371418;19;20006;-74
2022/03/06 14:21:19;;;;;;;8.10;4.93;;;;;;;;;;7370015;19;20010;-74
2022/03/06 14:23:50;;;;;;;8.75;5.32;;;;;;;;;;7374696;19;20341;-74
2022/03/06 14:26:18;;;;;;;10.27;5.07;;;;;;;;;;7374359;19;20018;-74
2022/03/06 14:28:50;;;;;;;11.27;5.10;;;;;;;;;;7369799;19;20014;-75
2022/03/06 14:31:15;;;;;;;9.68;4.90;;;;;;;;;;7374435;19;20092;-74
2022/03/06 14:33:40;;;;;;;9.50;5.32;;;;;;;;;;7374526;19;20122;-72
2022/03/06 14:36:06;;;;;;;9.10;5.00;;;;;;;;;;7371656;19;20347;-74
2022/03/06 14:38:31;;;;;;;11.75;5.50;;;;;;;;;;7372146;19;20014;-74
2022/03/06 14:40:56;;;;;;;10.25;5.05;;;;;;;;;;7373526;19;20033;-75
2022/03/06 14:43:21;;;;;;;10.70;5.22;;;;;;;;;;7374388;19;20099;-73